Time,TemperatureF,DewpointF,PressureIn,WindDirection,WindDirectionDegrees,WindSpeedMPH,WindSpeedGustMPH,Humidity,HourlyPrecipIn,Conditions,Clouds,dailyrainin,SoftwareType,DateUTC
2013-03-24 00:08:00,39.6,33.3,30.02,East,90,2.2,-999.0,78,-99.99,,,0.00,Acu-Link.com,2013-03-24 07:08:00,
2013-03-24 00:23:00,39.2,33.6,30.02,SSE,157,3.7,-999.0,80,-99.99,,,0.00,Acu-Link.com,2013-03-24 07:23:00,
2013-03-24 00:38:00,38.7,33.4,30.02,ESE,112,3.2,-999.0,81,-99.99,,,0.00,Acu-Link.com,2013-03-24 07:38:00,
2013-03-24 00:53:00,37.9,33.2,30.02,NNE,22,0.0,-999.0,83,-99.99,,,0.00,Acu-Link.com,2013-03-24 07:53:00,
2013-03-24 01:08:00,37.8,33.4,30.02,ESE,112,0.0,-999.0,84,-99.99,,,0.00,Acu-Link.com,2013-03-24 08:08:00,
2013-03-24 01:23:00,36.5,32.7,30.02,ESE,112,2.2,-999.0,86,-99.99,,,0.00,Acu-Link.com,2013-03-24 08:23:00,
2013-03-24 01:38:00,37.4,32.7,30.03,East,90,0.0,-999.0,83,-99.99,,,0.00,Acu-Link.com,2013-03-24 08:38:00,
2013-03-24 01:54:00,36.5,32.4,30.02,ENE,67,0.0,-999.0,85,-99.99,,,0.00,Acu-Link.com,2013-03-24 08:54:00,
2013-03-24 02:09:00,36.5,32.4,30.03,NE,45,0.0,-999.0,85,-99.99,,,0.00,Acu-Link.com,2013-03-24 09:09:00,
2013-03-24 02:24:00,35.6,32.4,30.02,West,270,0.0,-999.0,88,-99.99,,,0.00,Acu-Link.com,2013-03-24 09:24:00,
2013-03-24 02:39:00,35.6,32.1,30.03,NE,45,0.0,-999.0,87,-99.99,,,0.00,Acu-Link.com,2013-03-24 09:39:00,
2013-03-24 02:54:00,34.7,32.1,30.02,East,90,0.0,-999.0,90,-99.99,,,0.00,Acu-Link.com,2013-03-24 09:54:00,
2013-03-24 03:09:00,36.0,33.4,30.02,NNE,22,0.0,-999.0,90,-99.99,,,0.00,Acu-Link.com,2013-03-24 10:09:00,
2013-03-24 03:24:00,36.5,33.3,30.02,NW,315,0.0,-999.0,88,-99.99,,,0.00,Acu-Link.com,2013-03-24 10:24:00,
2013-03-24 03:39:00,35.1,32.5,30.02,ESE,112,0.0,-999.0,90,-99.99,,,0.00,Acu-Link.com,2013-03-24 10:39:00,
2013-03-24 03:55:00,34.7,32.3,30.03,NE,45,0.0,-999.0,91,-99.99,,,0.00,Acu-Link.com,2013-03-24 10:55:00,
2013-03-24 04:10:00,34.5,31.9,30.02,SE,135,0.0,-999.0,90,-99.99,,,0.00,Acu-Link.com,2013-03-24 11:10:00,
2013-03-24 04:25:00,34.5,32.1,30.02,NE,45,2.2,-999.0,91,-99.99,,,0.00,Acu-Link.com,2013-03-24 11:25:00,
2013-03-24 04:40:00,34.9,32.5,30.02,WNW,292,0.0,-999.0,91,-99.99,,,0.00,Acu-Link.com,2013-03-24 11:40:00,
2013-03-24 04:55:00,34.9,32.5,30.02,NE,45,0.0,-999.0,91,-99.99,,,0.00,Acu-Link.com,2013-03-24 11:55:00,
2013-03-24 05:10:00,34.7,32.3,30.02,NE,45,0.0,-999.0,91,-99.99,,,0.00,Acu-Link.com,2013-03-24 12:10:00,
2013-03-24 05:26:00,35.1,32.2,30.01,NE,45,2.2,-999.0,89,-99.99,,,0.00,Acu-Link.com,2013-03-24 12:26:00,
2013-03-24 05:41:00,35.2,32.6,30.00,NE,45,3.2,-999.0,90,-99.99,,,0.00,Acu-Link.com,2013-03-24 12:41:00,
2013-03-24 06:26:00,34.3,32.2,30.00,East,90,2.2,-999.0,92,-99.99,,,0.00,Acu-Link.com,2013-03-24 13:26:00,
2013-03-24 06:41:00,34.2,32.4,30.00,NE,45,0.0,-999.0,93,-99.99,,,0.00,Acu-Link.com,2013-03-24 13:41:00,
2013-03-24 06:56:00,33.8,32.0,30.01,ENE,67,1.1,-999.0,93,-99.99,,,0.00,Acu-Link.com,2013-03-24 13:56:00,
2013-03-24 07:11:00,34.0,31.9,30.01,NE,45,2.2,-999.0,92,-99.99,,,0.00,Acu-Link.com,2013-03-24 14:11:00,
2013-03-24 07:26:00,34.5,32.4,30.02,ENE,67,2.2,-999.0,92,-99.99,,,0.00,Acu-Link.com,2013-03-24 14:26:00,
2013-03-24 07:57:00,36.1,33.5,30.00,ENE,67,2.7,-999.0,90,-99.99,,,0.00,Acu-Link.com,2013-03-24 14:57:00,
2013-03-24 08:12:00,37.0,33.2,29.99,East,90,4.2,-999.0,86,-99.99,,,0.00,Acu-Link.com,2013-03-24 15:12:00,
2013-03-24 08:27:00,37.0,33.2,30.00,South,180,1.7,-999.0,86,-99.99,,,0.00,Acu-Link.com,2013-03-24 15:27:00,
2013-03-24 08:42:00,37.2,33.4,29.99,ESE,112,0.0,-999.0,86,-99.99,,,0.00,Acu-Link.com,2013-03-24 15:42:00,
2013-03-24 08:57:00,37.8,34.0,29.99,ESE,112,1.7,-999.0,86,-99.99,,,0.00,Acu-Link.com,2013-03-24 15:57:00,
2013-03-24 09:12:00,38.7,33.7,29.99,ESE,112,1.7,-999.0,82,-99.99,,,0.00,Acu-Link.com,2013-03-24 16:12:00,
2013-03-24 09:28:00,39.6,34.3,29.99,ESE,112,2.7,-999.0,81,-99.99,,,0.00,Acu-Link.com,2013-03-24 16:28:00,
2013-03-24 09:43:00,40.8,34.5,29.99,West,270,0.0,-999.0,78,-99.99,,,0.00,Acu-Link.com,2013-03-24 16:43:00,
2013-03-24 09:58:00,40.6,33.6,29.99,SSE,157,0.0,-999.0,76,-99.99,,,0.00,Acu-Link.com,2013-03-24 16:58:00,
2013-03-24 10:13:00,42.4,33.7,29.99,SW,225,0.0,-999.0,71,-99.99,,,0.00,Acu-Link.com,2013-03-24 17:13:00,
2013-03-24 10:28:00,42.1,33.7,29.99,SSW,202,1.7,-999.0,72,-99.99,,,0.00,Acu-Link.com,2013-03-24 17:28:00,
2013-03-24 10:43:00,43.2,34.4,29.99,South,180,1.7,-999.0,71,-99.99,,,0.00,Acu-Link.com,2013-03-24 17:43:00,
2013-03-24 10:59:00,43.9,35.1,29.98,SSW,202,3.2,-999.0,71,-99.99,,,0.00,Acu-Link.com,2013-03-24 17:59:00,
2013-03-24 11:14:00,44.1,35.7,29.98,SSW,202,3.2,-999.0,72,-99.99,,,0.00,Acu-Link.com,2013-03-24 18:14:00,
2013-03-24 11:29:00,44.2,36.1,29.98,SSW,202,3.2,-999.0,73,-99.99,,,0.00,Acu-Link.com,2013-03-24 18:29:00,
2013-03-24 11:44:00,45.0,35.8,29.98,WNW,292,1.7,-999.0,70,-99.99,,,0.00,Acu-Link.com,2013-03-24 18:44:00,
2013-03-24 11:59:00,45.0,35.8,29.97,SW,225,2.7,-999.0,70,-99.99,,,0.00,Acu-Link.com,2013-03-24 18:59:00,
2013-03-24 12:14:00,45.3,35.4,29.97,SW,225,2.2,-999.0,68,-99.99,,,0.00,Acu-Link.com,2013-03-24 19:14:00,
2013-03-24 12:29:00,46.2,34.3,29.96,SSW,202,2.7,-999.0,63,-99.99,,,0.00,Acu-Link.com,2013-03-24 19:29:00,
2013-03-24 12:44:00,47.1,33.1,29.97,SW,225,1.7,-999.0,58,-99.99,,,0.00,Acu-Link.com,2013-03-24 19:44:00,
2013-03-24 12:59:00,48.6,34.1,29.97,SW,225,2.2,-999.0,57,-99.99,,,0.00,Acu-Link.com,2013-03-24 19:59:00,
2013-03-24 13:15:00,47.8,35.0,29.96,WSW,247,2.7,-999.0,61,-99.99,,,0.00,Acu-Link.com,2013-03-24 20:15:00,
2013-03-24 13:30:00,47.8,36.2,29.95,NW,315,1.7,-999.0,64,-99.99,,,0.00,Acu-Link.com,2013-03-24 20:30:00,
2013-03-24 13:45:00,48.2,37.0,29.96,West,270,1.7,-999.0,65,-99.99,,,0.00,Acu-Link.com,2013-03-24 20:45:00,
2013-03-24 14:00:00,48.2,36.6,29.95,NE,45,4.2,-999.0,64,-99.99,,,0.00,Acu-Link.com,2013-03-24 21:00:00,
2013-03-24 14:15:00,48.6,37.0,29.95,WSW,247,2.2,-999.0,64,-99.99,,,0.00,Acu-Link.com,2013-03-24 21:15:00,
2013-03-24 14:30:00,49.5,37.0,29.94,West,270,2.7,-999.0,62,-99.99,,,0.00,Acu-Link.com,2013-03-24 21:30:00,
2013-03-24 14:45:00,50.5,37.1,29.94,South,180,3.2,-999.0,60,-99.99,,,0.00,Acu-Link.com,2013-03-24 21:45:00,
2013-03-24 15:00:00,51.8,36.2,29.93,WSW,247,5.3,-999.0,55,-99.99,,,0.00,Acu-Link.com,2013-03-24 22:00:00,
2013-03-24 15:15:00,51.1,36.0,29.92,SW,225,3.7,-999.0,56,-99.99,,,0.00,Acu-Link.com,2013-03-24 22:15:00,
2013-03-24 15:46:00,51.6,34.1,29.91,South,180,2.2,-999.0,51,-99.99,,,0.00,Acu-Link.com,2013-03-24 22:46:00,
2013-03-24 16:01:00,52.3,34.7,29.91,SW,225,4.7,-999.0,51,-99.99,,,0.00,Acu-Link.com,2013-03-24 23:01:00,
2013-03-24 16:16:00,53.6,33.3,29.89,SSE,157,2.7,-999.0,46,-99.99,,,0.00,Acu-Link.com,2013-03-24 23:16:00,
2013-03-24 16:32:00,53.6,34.4,29.88,SSW,202,3.7,-999.0,48,-99.99,,,0.00,Acu-Link.com,2013-03-24 23:32:00,
2013-03-24 17:02:00,53.8,34.6,29.87,South,180,4.7,-999.0,48,-99.99,,,0.00,Acu-Link.com,2013-03-25 00:02:00,
2013-03-24 17:17:00,53.6,33.3,29.86,ESE,112,3.7,-999.0,46,-99.99,,,0.00,Acu-Link.com,2013-03-25 00:17:00,
2013-03-24 17:32:00,53.2,32.4,29.86,ESE,112,1.7,-999.0,45,-99.99,,,0.00,Acu-Link.com,2013-03-25 00:32:00,
2013-03-24 17:47:00,53.1,32.9,29.85,West,270,2.2,-999.0,46,-99.99,,,0.00,Acu-Link.com,2013-03-25 00:47:00,
2013-03-24 18:03:00,53.4,30.9,29.85,WNW,292,3.7,-999.0,42,-99.99,,,0.00,Acu-Link.com,2013-03-25 01:03:00,
2013-03-24 18:18:00,54.0,30.2,29.85,West,270,2.7,-999.0,40,-99.99,,,0.00,Acu-Link.com,2013-03-25 01:18:00,
2013-03-24 18:33:00,54.3,30.5,29.84,SSW,202,2.2,-999.0,40,-99.99,,,0.00,Acu-Link.com,2013-03-25 01:33:00,
2013-03-24 18:50:00,54.7,30.2,29.84,SW,225,1.7,-999.0,39,-99.99,,,0.00,Acu-Link.com,2013-03-25 01:50:00,
2013-03-24 19:05:00,53.4,30.9,29.84,SW,225,1.7,-999.0,42,-99.99,,,0.00,Acu-Link.com,2013-03-25 02:05:00,
2013-03-24 19:20:00,52.5,31.8,29.83,SSW,202,0.0,-999.0,45,-99.99,,,0.00,Acu-Link.com,2013-03-25 02:20:00,
2013-03-24 19:35:00,50.5,32.1,29.83,South,180,0.0,-999.0,49,-99.99,,,0.00,Acu-Link.com,2013-03-25 02:35:00,
2013-03-24 19:50:00,48.7,32.3,29.83,ESE,112,0.0,-999.0,53,-99.99,,,0.00,Acu-Link.com,2013-03-25 02:50:00,
2013-03-24 20:20:00,46.2,33.5,29.83,East,90,0.0,-999.0,61,-99.99,,,0.00,Acu-Link.com,2013-03-25 03:20:00,
2013-03-24 21:48:00,45.5,37.4,29.84,NE,45,0.0,-999.0,73,-99.99,,,0.00,Acu-Link.com,2013-03-25 04:48:00,
2013-03-24 22:07:00,45.7,37.5,29.84,WNW,292,0.0,-999.0,73,-99.99,,,0.00,Acu-Link.com,2013-03-25 05:07:00,
2013-03-24 22:23:00,45.0,36.2,29.84,East,90,0.0,-999.0,71,-99.99,,,0.00,Acu-Link.com,2013-03-25 05:23:00,
2013-03-24 22:38:00,46.0,38.2,29.84,NNW,337,0.0,-999.0,74,-99.99,,,0.00,Acu-Link.com,2013-03-25 05:38:00,
2013-03-24 22:53:00,46.2,34.3,29.84,NNW,337,0.0,-999.0,63,-99.99,,,0.00,Acu-Link.com,2013-03-25 05:53:00,
2013-03-24 23:08:00,46.4,32.9,29.84,NE,45,1.7,-999.0,59,-99.99,,,0.00,Acu-Link.com,2013-03-25 06:08:00,
2013-03-24 23:23:00,46.6,33.9,29.84,East,90,2.7,-999.0,61,-99.99,,,0.00,Acu-Link.com,2013-03-25 06:23:00,
2013-03-24 23:38:00,46.6,33.5,29.84,East,90,1.7,-999.0,60,-99.99,,,0.00,Acu-Link.com,2013-03-25 06:38:00,
2013-03-24 23:53:00,46.4,34.5,29.84,West,270,1.1,-999.0,63,-99.99,,,0.00,Acu-Link.com,2013-03-25 06:53:00,